Time;durP1;ratioP1;P1;durP2;ratioP2;P2;SDS_P1;SDS_P2;PMS_P1;PMS_P2;Temp;Humidity;BMP_temperature;BMP_pressure;BME280_temperature;BME280_humidity;BME280_pressure;Samples;Min_cycle;Max_cycle;Signal;HPM_P1;HPM_P2
2023/08/20 00:01:21;;;;;;;23.73;14.90;;;;;;;17.90;100.00;101979.19;5091204;28;20383;-67
2023/08/20 00:03:48;;;;;;;24.70;14.77;;;;;;;17.87;100.00;101977.75;5091836;28;20100;-67
2023/08/20 00:06:14;;;;;;;18.70;12.30;;;;;;;17.85;100.00;101979.84;5091313;28;20032;-68
2023/08/20 00:08:39;;;;;;;18.45;12.23;;;;;;;17.82;100.00;101988.38;5091027;28;20035;-68
2023/08/20 00:11:05;;;;;;;22.98;13.60;;;;;;;17.77;100.00;101990.88;5090915;28;20107;-68
2023/08/20 00:13:30;;;;;;;23.13;13.02;;;;;;;17.79;100.00;101999.59;5090791;28;20047;-68
2023/08/20 00:15:56;;;;;;;18.52;13.65;;;;;;;17.78;100.00;102002.47;5090811;28;20028;-68
2023/08/20 00:18:22;;;;;;;24.52;13.35;;;;;;;17.78;100.00;101999.78;5090792;28;20153;-68
2023/08/20 00:20:47;;;;;;;19.13;12.07;;;;;;;17.73;100.00;101997.72;5090715;28;20036;-68
2023/08/20 00:23:13;;;;;;;21.40;13.25;;;;;;;17.63;100.00;101990.13;5090847;28;20483;-68
2023/08/20 00:25:39;;;;;;;19.35;13.82;;;;;;;17.62;100.00;102001.13;5090588;28;20024;-68
2023/08/20 00:28:04;;;;;;;18.08;11.52;;;;;;;17.46;100.00;101995.16;5090539;28;20088;-68
2023/08/20 00:30:30;;;;;;;16.42;11.52;;;;;;;17.46;100.00;101991.66;5089145;28;20016;-68
2023/08/20 00:32:55;;;;;;;19.92;11.95;;;;;;;17.45;100.00;101990.00;5090506;28;20031;-68
2023/08/20 00:35:21;;;;;;;19.90;12.32;;;;;;;17.47;100.00;101987.91;5090431;28;20050;-68
2023/08/20 00:37:47;;;;;;;18.42;12.02;;;;;;;17.42;100.00;101979.63;5090462;28;20039;-68
2023/08/20 00:40:12;;;;;;;19.65;12.20;;;;;;;17.44;100.00;101991.03;5090523;28;20028;-68
2023/08/20 00:42:38;;;;;;;19.23;11.93;;;;;;;17.42;100.00;101996.66;5090359;28;20035;-67
2023/08/20 00:45:04;;;;;;;24.15;12.88;;;;;;;17.40;100.00;102006.81;5090346;28;20023;-68
2023/08/20 00:47:30;;;;;;;20.13;11.77;;;;;;;17.37;100.00;101998.31;5090121;28;20028;-68
2023/08/20 00:49:55;;;;;;;19.38;12.32;;;;;;;17.38;100.00;102005.38;5090110;28;20029;-68
2023/08/20 00:52:22;;;;;;;21.70;12.98;;;;;;;17.38;100.00;102008.91;5089764;28;20051;-68
2023/08/20 00:54:48;;;;;;;18.15;11.93;;;;;;;17.39;100.00;102018.63;5090174;28;20483;-67
2023/08/20 00:57:19;;;;;;;21.38;13.40;;;;;;;17.38;100.00;102022.38;5090105;28;20063;-68
2023/08/20 00:59:49;;;;;;;17.43;12.53;;;;;;;17.37;100.00;102018.03;5090064;28;20064;-67
2023/08/20 01:02:16;;;;;;;19.00;12.85;;;;;;;17.39;100.00;102017.81;5090402;28;20036;-68
2023/08/20 01:04:41;;;;;;;17.83;13.07;;;;;;;17.42;100.00;102023.63;5089946;28;20036;-68
2023/08/20 01:07:29;;;;;;;17.38;12.77;;;;;;;17.46;100.00;102032.09;5089958;28;20039;-67
2023/08/20 01:10:17;;;;;;;18.08;10.38;;;;;;;17.48;100.00;102038.94;5089896;28;20032;-67
2023/08/20 01:12:44;;;;;;;15.80;10.48;;;;;;;17.51;100.00;102041.22;5089797;28;20056;-67
2023/08/20 01:15:13;;;;;;;24.08;12.68;;;;;;;17.58;100.00;102049.28;5089540;28;20471;-67
2023/08/20 01:17:40;;;;;;;19.35;11.43;;;;;;;17.59;100.00;102050.94;5088375;28;20028;-67
2023/08/20 01:20:06;;;;;;;17.38;10.65;;;;;;;17.63;100.00;102062.97;5089663;28;20024;-68
2023/08/20 01:22:52;;;;;;;22.05;12.55;;;;;;;17.68;100.00;102063.16;5089712;28;20047;-68
2023/08/20 01:25:42;;;;;;;16.02;11.07;;;;;;;17.73;100.00;102071.41;5089437;28;20032;-67
2023/08/20 01:28:27;;;;;;;19.17;10.63;;;;;;;17.79;100.00;102067.06;5070312;28;20386;-67
2023/08/20 01:30:55;;;;;;;23.25;14.68;;;;;;;17.73;100.00;102057.09;5070091;28;20029;-67
2023/08/20 01:33:20;;;;;;;19.92;14.77;;;;;;;17.80;100.00;102059.81;5070006;28;20082;-67
2023/08/20 01:35:46;;;;;;;21.40;15.93;;;;;;;17.79;100.00;102058.09;5070022;28;20028;-67
2023/08/20 01:38:11;;;;;;;24.30;15.77;;;;;;;17.79;100.00;102063.50;5070084;28;20071;-67
2023/08/20 01:40:37;;;;;;;21.70;16.15;;;;;;;17.80;100.00;102059.81;5068373;28;20024;-68
2023/08/20 01:43:02;;;;;;;20.35;14.10;;;;;;;17.83;100.00;102056.66;5069850;28;20459;-68
2023/08/20 01:45:27;;;;;;;20.17;13.05;;;;;;;17.85;100.00;102052.72;5069964;28;20111;-68
2023/08/20 01:47:53;;;;;;;22.35;12.45;;;;;;;17.86;100.00;102051.66;5069807;28;20032;-68
2023/08/20 01:50:18;;;;;;;21.55;13.02;;;;;;;17.85;100.00;102041.91;5069669;28;20357;-68
2023/08/20 01:52:44;;;;;;;26.17;14.35;;;;;;;17.83;100.00;102041.28;5089191;28;20043;-68
2023/08/20 01:55:11;;;;;;;20.35;13.55;;;;;;;17.82;100.00;102041.53;5089414;28;20031;-68
2023/08/20 01:57:36;;;;;;;22.50;13.25;;;;;;;17.80;100.00;102052.53;5089292;28;20394;-68
2023/08/20 02:00:04;;;;;;;22.52;11.68;;;;;;;17.84;100.00;102063.72;5089048;28;20107;-68
2023/08/20 02:02:30;;;;;;;20.25;13.48;;;;;;;17.86;100.00;102065.16;5088943;28;20074;-68
2023/08/20 02:04:55;;;;;;;22.08;12.32;;;;;;;17.88;100.00;102057.66;5088994;28;20510;-68
2023/08/20 02:07:21;;;;;;;20.05;12.45;;;;;;;17.89;100.00;102062.03;5089026;28;20113;-68
2023/08/20 02:09:46;;;;;;;18.98;12.00;;;;;;;17.92;100.00;102067.00;5089067;28;20024;-68
2023/08/20 02:12:11;;;;;;;20.13;12.60;;;;;;;17.94;100.00;102070.28;5088868;28;20038;-68
2023/08/20 02:14:37;;;;;;;21.27;13.18;;;;;;;17.98;100.00;102075.28;5089011;28;20122;-68
2023/08/20 02:17:02;;;;;;;23.70;13.75;;;;;;;18.02;100.00;102081.88;5088970;28;20056;-68
2023/08/20 02:19:28;;;;;;;23.00;14.13;;;;;;;18.02;100.00;102082.72;5088853;28;20075;-68
2023/08/20 02:21:53;;;;;;;22.63;12.65;;;;;;;18.04;100.00;102083.34;5088899;28;20032;-68
2023/08/20 02:24:19;;;;;;;21.23;12.75;;;;;;;18.05;100.00;102081.44;5089185;28;20044;-68
2023/08/20 02:26:44;;;;;;;21.77;12.73;;;;;;;18.04;100.00;102083.34;5091339;28;20387;-68
2023/08/20 02:29:09;;;;;;;19.48;12.85;;;;;;;18.06;100.00;102073.16;5093199;28;20060;-68
2023/08/20 02:31:35;;;;;;;21.50;12.73;;;;;;;17.99;100.00;102074.22;5091535;28;20395;-68
2023/08/20 02:34:01;;;;;;;20.98;13.60;;;;;;;17.98;100.00;102075.28;5092784;28;20164;-68
2023/08/20 02:36:26;;;;;;;20.08;12.75;;;;;;;17.90;100.00;102079.88;5093016;28;20055;-68
2023/08/20 02:38:51;;;;;;;18.85;13.10;;;;;;;17.86;100.00;102078.66;5093915;28;20020;-68
2023/08/20 02:41:17;;;;;;;17.65;12.20;;;;;;;17.78;100.00;102078.84;5092734;28;20130;-68
2023/08/20 02:43:42;;;;;;;18.80;12.23;;;;;;;17.73;100.00;102078.69;5092917;28;20032;-67
2023/08/20 02:46:08;;;;;;;19.70;12.23;;;;;;;17.70;100.00;102077.22;5092705;28;20043;-67
2023/08/20 02:48:33;;;;;;;21.75;11.43;;;;;;;17.65;100.00;102084.31;5092572;28;20488;-68
2023/08/20 02:50:59;;;;;;;20.75;12.45;;;;;;;17.59;100.00;102074.38;5092221;28;20395;-68
2023/08/20 02:53:24;;;;;;;21.10;12.77;;;;;;;17.56;100.00;102072.13;5091229;28;20036;-67
2023/08/20 02:55:49;;;;;;;18.65;12.25;;;;;;;17.50;100.00;102062.97;5091116;28;20031;-68
2023/08/20 02:58:15;;;;;;;18.60;11.73;;;;;;;17.49;100.00;102077.53;5092464;28;20059;-68
2023/08/20 03:00:42;;;;;;;18.60;11.40;;;;;;;17.46;100.00;102065.28;5092333;28;20043;-68
2023/08/20 03:03:08;;;;;;;22.58;13.07;;;;;;;17.39;100.00;102058.25;5092240;28;20024;-67
2023/08/20 03:05:34;;;;;;;19.00;11.98;;;;;;;17.36;100.00;102059.50;5092164;28;20048;-68
2023/08/20 03:08:00;;;;;;;20.75;13.50;;;;;;;17.31;100.00;102067.41;5092135;28;20046;-68
2023/08/20 03:10:27;;;;;;;16.90;11.77;;;;;;;17.27;100.00;102064.31;5092157;28;20032;-68
2023/08/20 03:12:53;;;;;;;21.50;11.68;;;;;;;17.24;100.00;102063.94;5092099;28;20110;-68
2023/08/20 03:15:18;;;;;;;19.00;12.23;;;;;;;17.18;100.00;102062.06;5092091;28;20118;-68
2023/08/20 03:17:43;;;;;;;16.15;10.35;;;;;;;17.16;100.00;102058.72;5092271;28;20031;-68
2023/08/20 03:20:09;;;;;;;17.40;11.00;;;;;;;17.12;100.00;102058.34;5091895;28;20409;-68
2023/08/20 03:22:37;;;;;;;20.17;11.80;;;;;;;17.12;100.00;102057.50;5090869;28;20043;-68
2023/08/20 03:25:03;;;;;;;17.52;11.00;;;;;;;17.09;100.00;102059.59;5092000;28;20479;-68
2023/08/20 03:27:28;;;;;;;18.92;11.27;;;;;;;17.05;100.00;102063.72;5091878;28;20043;-68
2023/08/20 03:29:53;;;;;;;16.45;10.90;;;;;;;16.99;100.00;102061.06;5072432;28;20050;-68
2023/08/20 03:32:19;;;;;;;19.38;11.18;;;;;;;16.91;100.00;102059.41;5091183;28;20126;-68
2023/08/20 03:34:44;;;;;;;18.23;11.30;;;;;;;16.83;100.00;102060.44;5091741;28;20971;-68
2023/08/20 03:37:09;;;;;;;19.58;11.15;;;;;;;16.82;100.00;102066.88;5091591;28;20046;-68
2023/08/20 03:39:35;;;;;;;18.08;11.77;;;;;;;16.76;100.00;102061.44;5091750;28;20522;-68
2023/08/20 03:42:00;;;;;;;16.45;11.15;;;;;;;16.72;100.00;102063.75;5091409;28;20074;-68
2023/08/20 03:44:26;;;;;;;20.42;12.18;;;;;;;16.69;100.00;102061.47;5091437;28;20031;-67
2023/08/20 03:46:51;;;;;;;21.23;12.13;;;;;;;16.65;100.00;102060.22;5091503;28;20028;-67
2023/08/20 03:49:16;;;;;;;19.23;12.30;;;;;;;16.62;100.00;102056.06;5091531;28;20482;-68
2023/08/20 03:51:42;;;;;;;20.73;12.07;;;;;;;16.58;100.00;102062.94;5091129;28;20617;-68
2023/08/20 03:54:08;;;;;;;19.75;11.57;;;;;;;16.57;100.00;102065.81;5091351;28;20055;-67
2023/08/20 03:56:34;;;;;;;18.35;11.13;;;;;;;16.59;100.00;102066.44;5091207;28;20025;-67
2023/08/20 03:58:59;;;;;;;18.88;12.25;;;;;;;16.57;100.00;102065.81;5091250;28;20035;-68
2023/08/20 04:01:25;;;;;;;15.75;9.88;;;;;;;16.52;100.00;102071.81;5091202;28;20127;-68
2023/08/20 04:03:50;;;;;;;14.93;9.60;;;;;;;16.51;100.00;102070.16;5091066;28;20100;-68
2023/08/20 04:06:15;;;;;;;14.48;10.00;;;;;;;16.47;100.00;102074.28;5091057;28;20040;-68
2023/08/20 04:08:41;;;;;;;19.42;11.60;;;;;;;16.45;100.00;102070.97;5091120;28;20472;-68
2023/08/20 04:11:06;;;;;;;16.60;10.40;;;;;;;16.49;100.00;102085.69;5089725;28;20477;-68
2023/08/20 04:13:32;;;;;;;16.58;10.27;;;;;;;16.41;100.00;102083.19;5090938;28;20436;-68
2023/08/20 04:15:58;;;;;;;19.02;11.50;;;;;;;16.44;100.00;102088.16;5090823;28;20039;-67
2023/08/20 04:18:23;;;;;;;17.20;10.63;;;;;;;16.42;100.00;102088.38;5090831;28;20028;-67
2023/08/20 04:20:52;;;;;;;17.15;10.90;;;;;;;16.38;100.00;102089.81;5091005;28;20119;-68
2023/08/20 04:23:19;;;;;;;14.45;9.48;;;;;;;16.34;100.00;102095.81;5071402;28;20713;-68
2023/08/20 04:25:44;;;;;;;18.98;10.43;;;;;;;16.27;100.00;102092.28;5071547;28;20024;-68
2023/08/20 04:28:11;;;;;;;20.92;11.32;;;;;;;16.26;100.00;102077.16;5071253;28;20411;-68
2023/08/20 04:30:36;;;;;;;16.77;9.82;;;;;;;16.30;100.00;102086.50;5070487;28;20079;-67
2023/08/20 04:33:02;;;;;;;17.88;9.88;;;;;;;16.32;100.00;102095.19;5068865;28;20492;-68
2023/08/20 04:35:27;;;;;;;16.08;10.02;;;;;;;16.31;100.00;102088.97;5070081;28;20040;-68
2023/08/20 04:37:53;;;;;;;17.40;10.18;;;;;;;16.25;100.00;102092.50;5070376;28;20115;-68
2023/08/20 04:40:18;;;;;;;14.90;9.23;;;;;;;16.19;100.00;102093.28;5070404;28;20078;-68
2023/08/20 04:42:44;;;;;;;18.00;10.38;;;;;;;16.17;100.00;102098.91;5070853;28;20093;-68
2023/08/20 04:45:10;;;;;;;15.45;9.23;;;;;;;16.14;100.00;102104.69;5070798;28;20471;-68
2023/08/20 04:47:36;;;;;;;15.35;9.43;;;;;;;16.14;100.00;102110.06;5089794;28;20032;-68
2023/08/20 04:50:01;;;;;;;14.35;9.10;;;;;;;16.10;100.00;102108.81;5089728;28;20031;-68
2023/08/20 04:52:26;;;;;;;17.75;9.27;;;;;;;16.07;100.00;102109.22;5087817;28;20055;-68
2023/08/20 04:54:52;;;;;;;14.30;9.30;;;;;;;16.04;100.00;102103.41;5089292;28;20036;-68
2023/08/20 04:57:17;;;;;;;23.25;10.38;;;;;;;16.05;100.00;102097.81;5088630;28;20432;-67
2023/08/20 04:59:45;;;;;;;19.58;10.85;;;;;;;16.09;100.00;102095.56;5089829;28;20020;-68
2023/08/20 05:02:13;;;;;;;19.30;9.77;;;;;;;16.07;100.00;102082.31;5089966;28;20031;-68
2023/08/20 05:04:39;;;;;;;16.63;10.00;;;;;;;16.14;100.00;102085.84;5088679;28;20088;-68
2023/08/20 05:07:05;;;;;;;18.92;10.15;;;;;;;16.18;100.00;102089.78;5089981;28;20078;-68
2023/08/20 05:09:30;;;;;;;17.95;9.60;;;;;;;16.23;100.00;102089.16;5088433;28;20070;-68
2023/08/20 05:11:56;;;;;;;19.33;10.18;;;;;;;16.29;100.00;102090.22;5090284;28;20024;-68
2023/08/20 05:14:21;;;;;;;16.65;10.18;;;;;;;16.34;100.00;102101.19;5090246;28;20024;-68
2023/08/20 05:16:46;;;;;;;15.73;10.43;;;;;;;16.40;100.00;102105.75;5088382;28;20065;-68
2023/08/20 05:19:12;;;;;;;16.85;10.80;;;;;;;16.41;100.00;102104.75;5089678;28;20031;-68
2023/08/20 05:21:37;;;;;;;15.77;10.30;;;;;;;16.42;100.00;102109.91;5089435;28;20138;-68
2023/08/20 05:24:03;;;;;;;21.77;11.35;;;;;;;16.45;100.00;102105.97;5088587;28;20502;-67
2023/08/20 05:26:29;;;;;;;17.48;9.75;;;;;;;16.52;100.00;102114.06;5089528;28;20032;-68
2023/08/20 05:28:54;;;;;;;21.73;10.55;;;;;;;16.63;100.00;102114.28;5089320;28;20327;-68
2023/08/20 05:31:19;;;;;;;15.20;9.65;;;;;;;16.74;100.00;102120.09;5089247;28;20032;-68
2023/08/20 05:33:45;;;;;;;22.95;10.70;;;;;;;16.93;100.00;102129.28;5089314;28;20063;-67
2023/08/20 05:36:10;;;;;;;14.80;8.98;;;;;;;16.96;100.00;102126.97;5089302;28;20049;-68
2023/08/20 05:38:35;;;;;;;16.95;9.23;;;;;;;17.06;100.00;102118.47;5089138;28;20028;-68
2023/08/20 05:41:01;;;;;;;15.75;9.20;;;;;;;17.11;100.00;102124.09;5089067;28;20143;-67
2023/08/20 05:43:26;;;;;;;16.27;9.60;;;;;;;17.14;100.00;102122.84;5087652;28;20063;-68
2023/08/20 05:45:52;;;;;;;17.48;9.98;;;;;;;17.21;100.00;102131.72;5087644;28;20036;-67
2023/08/20 05:48:17;;;;;;;17.55;11.00;;;;;;;17.30;100.00;102133.19;5088943;28;20024;-67
2023/08/20 05:50:42;;;;;;;19.60;12.85;;;;;;;17.35;100.00;102127.16;5088801;28;20039;-67
2023/08/20 05:53:08;;;;;;;18.17;11.07;;;;;;;17.39;100.00;102129.19;5088097;28;20032;-68
2023/08/20 05:55:34;;;;;;;23.08;12.60;;;;;;;17.48;100.00;102132.53;5089044;28;20058;-68
2023/08/20 05:57:59;;;;;;;25.15;14.25;;;;;;;17.55;100.00;102130.63;5089172;28;20070;-67
2023/08/20 06:00:24;;;;;;;21.25;13.55;;;;;;;17.64;100.00;102131.25;5087863;28;20032;-68
2023/08/20 06:02:50;;;;;;;21.90;12.32;;;;;;;17.70;100.00;102133.06;5089023;28;20058;-68
2023/08/20 06:05:15;;;;;;;20.75;15.55;;;;;;;17.76;100.00;102132.22;5088959;28;20081;-68
2023/08/20 06:07:41;;;;;;;23.80;17.83;;;;;;;17.85;100.00;102130.16;5088813;28;20387;-68
2023/08/20 06:10:07;;;;;;;21.05;17.27;;;;;;;17.92;100.00;102131.78;5088876;28;20115;-68
2023/08/20 06:12:32;;;;;;;22.25;15.57;;;;;;;17.98;100.00;102129.28;5088769;28;20422;-68
2023/08/20 06:14:58;;;;;;;20.17;14.95;;;;;;;18.02;100.00;102125.09;5088683;28;20031;-68
2023/08/20 06:17:24;;;;;;;21.52;13.15;;;;;;;18.09;100.00;102131.28;5088888;28;20043;-68
2023/08/20 06:19:49;;;;;;;19.27;14.65;;;;;;;18.13;100.00;102132.50;5088624;28;20056;-68
2023/08/20 06:22:14;;;;;;;18.83;13.50;;;;;;;18.19;100.00;102131.66;5088644;28;20454;-68
2023/08/20 06:24:40;;;;;;;15.05;10.30;;;;;;;18.24;100.00;102134.53;5088942;28;20063;-68
2023/08/20 06:27:05;;;;;;;20.13;11.95;;;;;;;18.30;100.00;102130.97;5088754;28;20055;-68
2023/08/20 06:29:31;;;;;;;19.75;10.70;;;;;;;18.34;100.00;102132.19;5088522;28;20620;-68
2023/08/20 06:31:56;;;;;;;15.80;10.23;;;;;;;18.40;100.00;102135.91;5088671;28;20074;-68
2023/08/20 06:34:22;;;;;;;23.80;11.30;;;;;;;18.48;100.00;102140.22;5088381;28;20028;-68
2023/08/20 06:36:47;;;;;;;16.95;9.82;;;;;;;18.53;100.00;102137.69;5088493;28;20032;-68
2023/08/20 06:39:15;;;;;;;15.65;9.10;;;;;;;18.59;100.00;102140.34;5088488;28;20111;-68
2023/08/20 06:41:40;;;;;;;16.52;9.23;;;;;;;18.63;100.00;102143.44;5088464;28;20036;-69
2023/08/20 06:44:06;;;;;;;15.18;8.52;;;;;;;18.68;100.00;102140.91;5088350;28;20035;-70
2023/08/20 06:46:31;;;;;;;12.75;7.63;;;;;;;18.73;100.00;102142.94;5088561;28;20028;-70
2023/08/20 06:48:56;;;;;;;16.73;7.90;;;;;;;18.74;100.00;102134.63;5088358;28;20107;-69
2023/08/20 06:51:22;;;;;;;17.52;7.47;;;;;;;18.83;100.00;102136.03;5086634;28;20052;-69
2023/08/20 06:53:48;;;;;;;14.90;6.32;;;;;;;18.91;100.00;102150.31;5088405;28;20039;-69
2023/08/20 06:56:14;;;;;;;14.95;7.40;;;;;;;18.94;100.00;102148.03;5088435;28;20122;-70
2023/08/20 06:58:41;;;;;;;12.15;6.30;;;;;;;18.99;100.00;102148.19;5088570;28;20111;-69
2023/08/20 07:01:07;;;;;;;12.70;5.28;;;;;;;19.03;100.00;102149.38;5088535;28;20093;-70
2023/08/20 07:03:42;;;;;;;13.23;5.57;;;;;;;19.11;100.00;102153.69;5088424;28;20040;-69
2023/08/20 07:06:09;;;;;;;10.20;4.25;;;;;;;19.16;100.00;102145.75;5088629;28;20939;-69
2023/08/20 07:08:36;;;;;;;9.80;4.30;;;;;;;19.17;100.00;102135.75;5088292;28;20024;-70
2023/08/20 07:11:02;;;;;;;14.68;4.38;;;;;;;19.21;100.00;102142.38;5088274;28;20373;-70
2023/08/20 07:13:27;;;;;;;11.35;4.72;;;;;;;19.23;100.00;102143.81;5091607;28;20028;-70
2023/08/20 07:15:52;;;;;;;11.52;4.38;;;;;;;19.32;100.00;102155.16;5087766;28;20040;-69
2023/08/20 07:18:18;;;;;;;11.00;3.78;;;;;;;19.36;100.00;102150.97;5091866;28;20032;-68
2023/08/20 07:20:43;;;;;;;16.17;4.20;;;;;;;19.42;100.00;102160.06;5091817;28;20035;-67
2023/08/20 07:23:10;;;;;;;11.40;3.45;;;;;;;19.48;100.00;102162.69;5091617;28;20387;-67
2023/08/20 07:25:39;;;;;;;11.45;3.85;;;;;;;19.51;100.00;102164.13;5091534;28;20105;-67
2023/08/20 07:28:05;;;;;;;13.43;3.85;;;;;;;19.54;100.00;102154.72;5091484;28;20024;-67
2023/08/20 07:30:31;;;;;;;11.88;4.50;;;;;;;19.54;100.00;102147.44;5091639;28;20375;-67
2023/08/20 07:32:56;;;;;;;11.73;4.78;;;;;;;19.60;100.00;102153.84;5091585;28;20039;-67
2023/08/20 07:35:22;;;;;;;12.95;4.28;;;;;;;19.62;100.00;102152.56;5090079;28;20036;-67
2023/08/20 07:37:47;;;;;;;12.82;3.67;;;;;;;19.64;100.00;102160.44;5091376;28;20074;-67
2023/08/20 07:40:13;;;;;;;9.55;3.70;;;;;;;19.72;100.00;102156.66;5091510;28;20479;-67
2023/08/20 07:42:40;;;;;;;9.88;2.83;;;;;;;19.75;100.00;102165.13;5091455;28;20153;-67
2023/08/20 07:45:07;;;;;;;10.55;4.18;;;;;;;19.79;100.00;102160.13;5091253;28;20089;-67
2023/08/20 07:47:32;;;;;;;11.88;3.42;;;;;;;19.83;100.00;102164.84;5076721;28;20040;-67
2023/08/20 07:49:58;;;;;;;11.73;3.80;;;;;;;19.91;100.00;102169.13;5071982;28;20028;-68
2023/08/20 07:52:23;;;;;;;9.23;3.00;;;;;;;19.94;100.00;102165.97;5071626;28;20136;-67
2023/08/20 07:54:49;;;;;;;7.25;3.70;;;;;;;19.96;100.00;102163.03;5071832;28;20048;-67
2023/08/20 07:57:14;;;;;;;8.50;3.25;;;;;;;20.03;100.00;102169.19;5071845;28;20082;-68
2023/08/20 07:59:39;;;;;;;10.38;2.80;;;;;;;20.04;100.00;102165.41;5071642;28;20076;-67
2023/08/20 08:02:05;;;;;;;8.73;2.72;;;;;;;20.08;100.00;102167.44;5071486;28;20044;-67
2023/08/20 08:04:30;;;;;;;12.35;2.65;;;;;;;20.19;100.00;102178.56;5071667;28;20070;-67
2023/08/20 08:06:56;;;;;;;4.95;2.50;;;;;;;20.24;100.00;102176.81;5071768;28;20028;-67
2023/08/20 08:09:27;;;;;;;11.32;3.92;;;;;;;20.56;100.00;102173.91;5071682;28;20039;-67
2023/08/20 08:11:52;;;;;;;5.35;2.42;;;;;;;21.37;97.55;102188.66;5075733;28;20056;-67
2023/08/20 08:14:18;;;;;;;9.52;2.45;;;;;;;22.65;92.67;102179.63;5090813;28;20067;-67
2023/08/20 08:16:45;;;;;;;7.95;2.42;;;;;;;24.88;81.33;102185.56;5090915;28;20036;-68
2023/08/20 08:19:10;;;;;;;5.65;2.08;;;;;;;27.02;71.32;102179.34;5090655;28;20016;-67
2023/08/20 08:21:36;;;;;;;7.75;2.10;;;;;;;28.43;64.79;102182.97;5089301;28;20105;-68
2023/08/20 08:24:02;;;;;;;9.73;2.50;;;;;;;29.48;58.74;102191.69;5089805;28;20491;-67
2023/08/20 08:26:27;;;;;;;7.55;2.63;;;;;;;30.12;56.86;102192.28;5090487;28;20036;-68
2023/08/20 08:28:53;;;;;;;4.93;2.22;;;;;;;31.06;54.31;102193.31;5090466;28;20031;-68
2023/08/20 08:31:18;;;;;;;5.28;2.25;;;;;;;31.65;50.48;102195.25;5088834;28;20039;-68
2023/08/20 08:33:43;;;;;;;6.25;2.15;;;;;;;32.18;48.96;102195.78;5090607;28;20028;-68
2023/08/20 08:36:09;;;;;;;8.65;2.55;;;;;;;32.40;46.98;102189.47;5090569;28;20440;-68
2023/08/20 08:38:36;;;;;;;2.72;1.90;;;;;;;32.67;46.96;102194.91;5090353;28;20046;-68
2023/08/20 08:41:03;;;;;;;9.40;2.90;;;;;;;32.63;45.60;102187.56;5090267;28;20502;-68
2023/08/20 08:43:31;;;;;;;6.00;2.50;;;;;;;32.74;45.54;102191.69;5090342;28;20038;-67
2023/08/20 08:45:57;;;;;;;5.00;2.10;;;;;;;32.64;45.95;102184.47;5090413;28;20031;-68
2023/08/20 08:48:23;;;;;;;9.20;3.15;;;;;;;32.21;47.35;102195.16;5089960;28;20034;-68
2023/08/20 08:50:51;;;;;;;7.90;2.80;;;;;;;30.88;50.95;102193.06;5089978;28;20024;-68
2023/08/20 08:53:17;;;;;;;15.88;3.47;;;;;;;29.22;53.67;102194.72;5089419;28;20070;-68
2023/08/20 08:55:42;;;;;;;9.48;3.22;;;;;;;27.74;60.07;102192.88;5089876;28;20031;-68
2023/08/20 08:58:08;;;;;;;9.52;2.85;;;;;;;26.75;62.05;102190.59;5089714;28;20036;-67
2023/08/20 09:00:33;;;;;;;6.18;3.13;;;;;;;25.99;67.72;102193.94;5089806;28;20029;-68
2023/08/20 09:02:59;;;;;;;4.80;2.90;;;;;;;25.48;70.21;102191.75;5078340;28;20036;-68
2023/08/20 09:05:24;;;;;;;6.88;2.47;;;;;;;25.00;70.30;102193.59;5069241;28;20020;-68
2023/08/20 09:07:56;;;;;;;7.15;2.85;;;;;;;24.80;72.51;102199.69;5069576;28;20032;-68
2023/08/20 09:10:22;;;;;;;6.88;2.58;;;;;;;24.57;73.63;102197.31;5089236;28;20031;-68
2023/08/20 09:12:47;;;;;;;5.43;2.17;;;;;;;24.40;71.84;102197.38;5089423;28;20024;-70
2023/08/20 09:15:13;;;;;;;6.32;3.40;;;;;;;24.12;70.54;102199.25;5089560;28;20451;-70
2023/08/20 09:17:41;;;;;;;6.82;2.80;;;;;;;24.02;73.02;102193.66;5089613;28;20035;-70
2023/08/20 09:20:07;;;;;;;12.18;4.25;;;;;;;24.03;74.55;102190.72;5069450;28;20111;-69
2023/08/20 09:22:35;;;;;;;9.85;2.60;;;;;;;24.12;75.01;102188.34;5069825;28;20679;-69
2023/08/20 09:25:02;;;;;;;6.03;2.17;;;;;;;24.08;72.62;102191.81;5089038;28;20367;-69
2023/08/20 09:27:28;;;;;;;6.97;2.25;;;;;;;24.01;69.23;102189.31;5087875;28;20038;-69
2023/08/20 09:29:55;;;;;;;3.20;1.67;;;;;;;23.92;69.62;102193.53;5089502;28;20032;-70
2023/08/20 09:32:22;;;;;;;5.80;1.50;;;;;;;23.83;70.08;102193.16;5089276;28;20118;-69
2023/08/20 09:34:50;;;;;;;5.75;1.77;;;;;;;23.83;69.70;102194.00;5075772;28;20038;-69
2023/08/20 09:37:18;;;;;;;3.58;2.28;;;;;;;23.86;68.14;102195.38;5088728;28;20024;-68
2023/08/20 09:39:44;;;;;;;6.57;2.25;;;;;;;23.97;69.58;102193.59;5088946;28;20040;-69
2023/08/20 09:42:11;;;;;;;3.92;1.63;;;;;;;24.08;69.73;102194.56;5088794;28;20081;-68
2023/08/20 09:44:39;;;;;;;2.15;1.30;;;;;;;24.06;69.41;102194.81;5072034;28;20115;-68
2023/08/20 09:47:16;;;;;;;5.18;1.70;;;;;;;24.08;69.97;102198.13;5088922;28;20589;-69
2023/08/20 09:49:45;;;;;;;3.50;1.40;;;;;;;24.05;66.71;102194.00;5088814;28;20028;-69
2023/08/20 09:52:15;;;;;;;4.00;1.75;;;;;;;24.18;67.61;102191.94;5088650;28;20595;-69
2023/08/20 09:54:56;;;;;;;1.98;1.30;;;;;;;24.23;70.56;102195.59;5088431;28;20086;-69
2023/08/20 09:57:30;;;;;;;4.55;1.48;;;;;;;24.18;65.97;102191.94;5088638;28;20157;-71
2023/08/20 09:59:56;;;;;;;2.05;1.23;;;;;;;24.23;67.01;102200.19;5088714;28;20030;-71
2023/08/20 10:02:22;;;;;;;2.67;1.23;;;;;;;24.31;67.84;102199.72;5088897;28;20028;-71
2023/08/20 10:04:49;;;;;;;2.03;1.00;;;;;;;24.39;66.22;102202.03;5075656;28;20036;-67
2023/08/20 10:07:14;;;;;;;4.10;1.92;;;;;;;24.41;65.76;102199.84;5088351;28;20028;-68
2023/08/20 10:09:42;;;;;;;3.85;1.60;;;;;;;24.37;67.11;102190.53;5088565;28;20119;-70
2023/08/20 10:12:07;;;;;;;1.50;1.40;;;;;;;24.47;65.38;102189.84;5088553;28;20507;-68
2023/08/20 10:14:33;;;;;;;3.92;1.30;;;;;;;24.56;67.32;102187.47;5083632;28;20032;-71
2023/08/20 10:17:05;;;;;;;2.65;0.82;;;;;;;24.68;63.22;102199.88;5068087;28;20036;-69
2023/08/20 10:19:30;;;;;;;2.40;0.90;;;;;;;24.69;61.19;102190.59;5088193;28;20028;-67
2023/08/20 10:21:56;;;;;;;1.02;0.88;;;;;;;24.77;65.96;102199.41;5085868;28;20024;-66
2023/08/20 10:24:23;;;;;;;3.88;0.90;;;;;;;24.78;61.04;102201.84;5088462;28;20383;-67
2023/08/20 10:27:08;;;;;;;0.77;0.63;;;;;;;24.83;61.44;102193.72;5078724;28;20039;-68
2023/08/20 10:29:37;;;;;;;1.98;0.90;;;;;;;24.71;64.72;102193.09;5088498;28;20036;-67
2023/08/20 10:32:05;;;;;;;3.33;1.40;;;;;;;24.85;63.63;102193.47;5088586;28;20029;-68
2023/08/20 10:34:36;;;;;;;2.90;1.30;;;;;;;24.90;63.43;102185.31;5077114;28;20097;-72
2023/08/20 10:37:04;;;;;;;6.88;1.90;;;;;;;25.01;64.14;102191.69;5088484;28;20027;-67
2023/08/20 10:39:29;;;;;;;2.38;1.92;;;;;;;25.05;63.33;102192.81;5088396;28;20608;-67
2023/08/20 10:42:23;;;;;;;2.42;1.33;;;;;;;25.09;64.41;102188.47;5088471;28;20054;-67
2023/08/20 10:45:10;;;;;;;2.20;1.50;;;;;;;25.17;67.83;102189.91;5088228;28;20031;-67
2023/08/20 10:47:41;;;;;;;3.03;1.33;;;;;;;25.26;64.65;102189.19;5090474;28;20051;-67
2023/08/20 10:50:08;;;;;;;0.70;0.70;;;;;;;25.23;60.07;102192.44;5077886;28;20033;-67
2023/08/20 10:52:38;;;;;;;2.80;1.60;;;;;;;25.39;60.69;102200.72;5072560;28;20052;-67
2023/08/20 10:55:04;;;;;;;0.90;0.57;;;;;;;25.36;57.47;102197.44;5091396;28;20032;-67
2023/08/20 10:57:34;;;;;;;1.58;0.70;;;;;;;25.45;58.51;102194.22;5091738;28;20028;-67
2023/08/20 11:00:06;;;;;;;2.13;1.35;;;;;;;25.50;59.50;102199.69;5092072;28;20048;-66
2023/08/20 11:02:32;;;;;;;3.33;1.00;;;;;;;25.56;58.34;102191.25;5092144;28;20032;-67
2023/08/20 11:04:58;;;;;;;1.80;0.80;;;;;;;25.77;58.50;102196.81;5077501;28;20036;-67
2023/08/20 11:07:25;;;;;;;1.80;0.77;;;;;;;25.91;58.21;102200.75;5071963;28;20119;-67